Portada
METAR-TAF:

METAR-TAF

Aeropuertos :

Aeropuerto Internacional de Bagdad

Bagdad, Iraq

latitud: 33-15-45N, longitud: 44-14-04E, altitud: 35 m

Observación

El informe se hizo hace 26 minutos, a las 17:00 UTC
Viento 4 kt del oeste-noroeste
Temperatura 33°C
Humedad 20%
Presión 1007 hPa
Visibilidad: 9000 m

METAR: ORBI 251700Z 29004KT 9000 NSC 33/07 Q1007 NOSIG

Hora: 20:26 (17:26 UTC)

Pronóstico

El informe se hizo hace 7 horas y 26 minutos, a las 10:00 UTC
Pronóstico válido del 25 a las 12 UTC al 26 a las 12 UTC
Viento 10 kt del noroeste
Visibilidad 10 km o más
sin nubes por debajo de 1500 m y sin presencia de cumulonimbus.

TAF: ORBI 251000Z 2512/2612 32010KT CAVOK

Observaciones y pronósticos meteorológicos de más de 4000 aeropuertos (mensajes METAR y TAF).

Los puntos amarillos y rojos representan las estaciones disponibles.

Ponga el ratón en el punto deseado para ver el nombre de la estación.

Haga clic para ver las observaciones y los pronósticos meteorológicos.

Para cambiar el mapa : haga clic en los botones verdes con una cruz de color negro para hacer un zoom, en el botón verde con un guión para alejar o en las flechas verdes para mapas adyacentes.


METAR-TAF: